Terminal Aerodrome Forecast
Issued by NWS

Home | Current Version | Previous Version | Text Only | Print | Product List | Glossary On
Versions: 1 2 3 4 5 6 7 8 9 10 11 12 13 14 15 16 17 18 19 20 21 22 23 24
000
FTUS44 KOUN 242330
TAFCSM
TAF
KCSM 242330Z 2500/2524 16013KT P6SM SCT030
     FM250500 17014KT P6SM OVC020
     FM251500 19015G22KT P6SM BKN035
     FM251800 18016G25KT P6SM SCT035 BKN100 PROB30 2521/2524 5SM
      -TSRA BR BKN025CB OVC100=

USA.gov is the U.S. government's official web portal to all federal, state and local government web resources and services.